Time;durP1;ratioP1;P1;durP2;ratioP2;P2;SDS_P1;SDS_P2;PMS_P1;PMS_P2;Temp;Humidity;BMP_temperature;BMP_pressure;BME280_temperature;BME280_humidity;BME280_pressure;Samples;Min_cycle;Max_cycle;Signal;HPM_P1;HPM_P2
2022/01/16 00:08:07;;;;;;;1.17;1.03;;;17.40;62.20;;;;;;10478680;28;20203;-72
2022/01/16 00:13:30;;;;;;;1.43;1.33;;;17.40;62.20;;;;;;10492138;28;20216;-71
2022/01/16 00:18:53;;;;;;;1.37;1.17;;;17.40;62.20;;;;;;10493466;28;20575;-72
2022/01/16 00:24:15;;;;;;;1.10;1.00;;;17.40;62.20;;;;;;10480219;28;20243;-70
2022/01/16 00:29:39;;;;;;;1.00;0.90;;;17.40;62.20;;;;;;10491150;28;20212;-71
2022/01/16 00:35:01;;;;;;;2.00;1.20;;;17.40;62.20;;;;;;10498658;28;20224;-72
2022/01/16 00:40:23;;;;;;;1.17;0.97;;;17.40;62.20;;;;;;10494809;28;20688;-71
2022/01/16 00:45:47;;;;;;;1.63;1.10;;;17.40;62.20;;;;;;10475295;28;20242;-72
2022/01/16 00:51:09;;;;;;;1.00;0.87;;;17.40;62.20;;;;;;10497552;28;20220;-71
2022/01/16 00:56:31;;;;;;;1.03;0.93;;;17.40;62.20;;;;;;10528471;28;20192;-71
2022/01/16 01:01:55;;;;;;;1.50;1.30;;;17.40;62.20;;;;;;10543309;28;20222;-71
2022/01/16 01:07:17;;;;;;;1.40;1.30;;;17.40;62.20;;;;;;10487897;28;20389;-70
2022/01/16 01:12:52;;;;;;;0.80;0.80;;;17.40;62.20;;;;;;10497206;28;20587;-72
2022/01/16 01:18:16;;;;;;;1.30;1.20;;;17.40;62.20;;;;;;10498283;28;20196;-71
2022/01/16 01:23:39;;;;;;;1.23;1.00;;;17.40;62.20;;;;;;10487301;28;20680;-72
2022/01/16 01:29:01;;;;;;;0.73;0.70;;;17.40;62.80;;;;;;10481847;28;20204;-72
2022/01/16 01:34:24;;;;;;;1.50;1.13;;;17.40;62.20;;;;;;10495578;28;20227;-73
2022/01/16 01:39:46;;;;;;;1.13;1.03;;;17.40;62.20;;;;;;10494690;28;20196;-71
2022/01/16 01:51:04;;;;;;;1.00;0.90;;;17.40;62.20;;;;;;10507512;28;20200;-71
2022/01/16 01:56:28;;;;;;;1.10;1.00;;;17.40;62.20;;;;;;10502840;28;20192;-71
2022/01/16 02:01:50;;;;;;;1.10;1.00;;;17.40;62.20;;;;;;10522246;28;20220;-71
2022/01/16 02:07:14;;;;;;;0.80;0.80;;;17.40;62.30;;;;;;10541035;28;20718;-71
2022/01/16 02:12:41;;;;;;;1.03;1.00;;;17.40;62.20;;;;;;10520481;28;20245;-71
2022/01/16 02:35:09;;;;;;;1.30;1.00;;;17.40;62.30;;;;;;10485089;28;20647;-72
2022/01/16 02:40:33;;;;;;;1.10;0.90;;;17.40;62.20;;;;;;10465155;28;20691;-71
2022/01/16 02:46:09;;;;;;;0.93;0.87;;;17.40;62.30;;;;;;10480844;28;20184;-72
2022/01/16 02:51:31;;;;;;;1.27;1.00;;;17.40;62.30;;;;;;10490933;28;20212;-72
2022/01/16 02:56:55;;;;;;;1.73;1.30;;;17.40;62.80;;;;;;10473219;28;20181;-72
2022/01/16 03:02:19;;;;;;;0.97;0.90;;;17.40;62.20;;;;;;10493976;28;20223;-69
2022/01/16 03:07:41;;;;;;;0.83;0.83;;;17.40;62.20;;;;;;10494587;28;20184;-72
2022/01/16 03:13:05;;;;;;;1.20;1.10;;;17.40;62.30;;;;;;10486391;28;20575;-71
2022/01/16 03:24:04;;;;;;;1.50;1.33;;;17.30;62.20;;;;;;10461405;28;20194;-71
2022/01/16 03:29:29;;;;;;;1.30;1.20;;;17.40;62.30;;;;;;10493064;28;20234;-72
2022/01/16 03:34:51;;;;;;;1.53;1.33;;;17.40;62.30;;;;;;10484499;28;20215;-71
2022/01/16 03:40:15;;;;;;;1.40;1.03;;;17.40;62.30;;;;;;10494439;28;20195;-72
2022/01/16 03:45:39;;;;;;;1.87;1.00;;;17.40;62.30;;;;;;10484793;28;20203;-72
2022/01/16 03:51:01;;;;;;;1.00;0.90;;;17.40;62.20;;;;;;10485600;28;20220;-72
2022/01/16 03:56:24;;;;;;;1.37;1.13;;;17.40;62.30;;;;;;10488037;28;20213;-72
2022/01/16 04:01:48;;;;;;;1.17;1.07;;;17.40;62.30;;;;;;10495960;22;20220;-68
2022/01/16 04:07:15;;;;;;;1.20;1.10;;;17.40;62.30;;;;;;10505464;28;20200;-68
2022/01/16 04:12:39;;;;;;;1.73;1.20;;;17.40;62.30;;;;;;10512920;28;20227;-68
2022/01/16 04:18:05;;;;;;;1.50;1.40;;;17.40;62.30;;;;;;10493070;28;20193;-68
2022/01/16 04:23:28;;;;;;;1.20;1.10;;;17.40;62.30;;;;;;10503484;28;20287;-68
2022/01/16 04:28:50;;;;;;;1.30;1.20;;;17.40;62.20;;;;;;10494567;28;20769;-68
2022/01/16 04:34:13;;;;;;;1.67;1.40;;;17.40;62.20;;;;;;10492940;28;20223;-68
2022/01/16 04:39:36;;;;;;;1.73;1.40;;;17.40;62.20;;;;;;10506988;28;20567;-68
2022/01/16 04:44:59;;;;;;;1.20;1.03;;;17.40;62.30;;;;;;10508359;28;20243;-68
2022/01/16 04:50:25;;;;;;;1.33;1.23;;;17.30;62.20;;;;;;10494891;28;20238;-67
2022/01/16 04:55:48;;;;;;;1.40;1.30;;;17.30;62.20;;;;;;10496028;28;20207;-67
2022/01/16 05:01:11;;;;;;;1.30;1.20;;;17.40;62.20;;;;;;10522614;28;20228;-68
2022/01/16 05:06:35;;;;;;;1.40;0.97;;;17.30;62.20;;;;;;10503438;28;20688;-68
2022/01/16 05:11:59;;;;;;;1.23;1.13;;;17.30;62.30;;;;;;10524427;28;20216;-67
2022/01/16 05:17:21;;;;;;;1.57;1.27;;;17.30;62.20;;;;;;10533995;28;20679;-65
2022/01/16 05:22:44;;;;;;;1.80;1.60;;;17.30;62.30;;;;;;10507615;28;20215;-67
2022/01/16 05:28:06;;;;;;;1.57;1.10;;;17.30;62.30;;;;;;10510805;28;20188;-68
2022/01/16 05:33:28;;;;;;;1.43;1.33;;;17.40;62.30;;;;;;10499534;28;20223;-68
2022/01/16 05:38:53;;;;;;;1.73;1.60;;;17.40;62.30;;;;;;10523308;28;20195;-68
2022/01/16 05:44:15;;;;;;;1.50;1.20;;;17.40;62.20;;;;;;10504386;28;20283;-68
2022/01/16 05:49:37;;;;;;;1.27;1.17;;;17.40;62.20;;;;;;10497492;28;20262;-68
2022/01/16 05:55:00;;;;;;;2.43;1.50;;;17.40;62.20;;;;;;10530072;28;20686;-67
2022/01/16 06:00:23;;;;;;;1.90;1.70;;;17.40;62.20;;;;;;10534082;28;20192;-68
2022/01/16 06:05:45;;;;;;;1.50;1.40;;;17.40;62.20;;;;;;10540037;28;20219;-68
2022/01/16 06:11:08;;;;;;;1.87;1.57;;;17.30;62.10;;;;;;10532495;28;20208;-68
2022/01/16 06:16:30;;;;;;;2.20;1.30;;;17.40;62.20;;;;;;10498956;28;20216;-68
2022/01/16 06:21:52;;;;;;;1.50;1.40;;;17.40;62.20;;;;;;10497037;28;20343;-67
2022/01/16 06:27:16;;;;;;;1.60;1.50;;;17.40;62.10;;;;;;10515351;28;20179;-66
2022/01/16 06:32:39;;;;;;;2.63;1.50;;;17.40;62.00;;;;;;10535368;28;20211;-68
2022/01/16 06:38:01;;;;;;;1.97;1.57;;;17.40;62.10;;;;;;10539401;28;20192;-67
2022/01/16 06:43:24;;;;;;;2.10;1.90;;;17.50;62.10;;;;;;10523969;28;20223;-65
2022/01/16 06:48:46;;;;;;;1.93;1.73;;;17.40;62.10;;;;;;10501838;28;20195;-66
2022/01/16 06:54:08;;;;;;;1.70;1.60;;;17.50;62.10;;;;;;10503703;28;20695;-68
2022/01/16 06:59:33;;;;;;;1.83;1.50;;;17.40;62.00;;;;;;10530586;28;20184;-68
2022/01/16 07:04:55;;;;;;;2.30;2.00;;;17.50;62.10;;;;;;10501373;28;20566;-68
2022/01/16 07:10:17;;;;;;;2.03;1.80;;;17.40;62.10;;;;;;10493825;28;20191;-68
2022/01/16 07:15:40;;;;;;;3.17;2.07;;;17.40;62.00;;;;;;10522526;28;20212;-67
2022/01/16 07:21:02;;;;;;;2.43;2.03;;;17.50;62.10;;;;;;10494027;28;20631;-67
2022/01/16 07:26:25;;;;;;;2.13;1.93;;;17.40;62.10;;;;;;10514651;28;20656;-67
2022/01/16 07:31:48;;;;;;;2.50;2.00;;;17.40;62.70;;;;;;10513199;28;20212;-67
2022/01/16 07:37:10;;;;;;;2.23;2.03;;;17.40;62.10;;;;;;10495503;28;20564;-67
2022/01/16 07:42:33;;;;;;;2.20;2.00;;;17.40;62.10;;;;;;10514578;28;20212;-68
2022/01/16 07:47:56;;;;;;;2.60;2.40;;;17.40;62.10;;;;;;10496162;28;20325;-67
2022/01/16 07:53:18;;;;;;;2.23;2.03;;;17.50;62.10;;;;;;10521744;28;20690;-67
2022/01/16 07:58:42;;;;;;;3.33;2.53;;;17.40;62.10;;;;;;10503031;28;20185;-68
2022/01/16 08:04:05;;;;;;;2.37;2.17;;;17.40;62.10;;;;;;10526639;28;20215;-68
2022/01/16 08:09:27;;;;;;;2.50;2.00;;;17.40;62.10;;;;;;10530713;28;20263;-67
2022/01/16 08:14:49;;;;;;;3.10;2.43;;;17.40;62.00;;;;;;10492787;28;20211;-65
2022/01/16 08:20:13;;;;;;;3.50;2.43;;;17.40;62.10;;;;;;10513891;28;20188;-66
2022/01/16 08:25:35;;;;;;;2.53;2.33;;;17.40;62.10;;;;;;10513697;28;20540;-66
2022/01/16 08:30:58;;;;;;;3.10;2.67;;;17.40;62.10;;;;;;10513889;28;20196;-67
2022/01/16 08:36:21;;;;;;;3.10;2.33;;;17.40;62.10;;;;;;10519045;28;20572;-66
2022/01/16 08:41:44;;;;;;;3.23;2.70;;;17.40;62.00;;;;;;10525295;28;20207;-67
2022/01/16 08:47:07;;;;;;;2.20;2.00;;;17.40;62.10;;;;;;10495091;28;20191;-67
2022/01/16 08:52:30;;;;;;;3.13;2.73;;;17.40;62.10;;;;;;10499801;28;20216;-68
2022/01/16 08:57:52;;;;;;;3.27;2.60;;;17.40;62.10;;;;;;10519375;28;20199;-67
2022/01/16 09:03:14;;;;;;;3.20;2.53;;;17.40;62.10;;;;;;10502644;28;20216;-66
2022/01/16 09:08:38;;;;;;;4.17;3.17;;;17.40;62.10;;;;;;10502940;28;20259;-66
2022/01/16 09:14:00;;;;;;;3.10;2.80;;;17.40;62.00;;;;;;10530273;28;20223;-66
2022/01/16 09:19:22;;;;;;;3.27;2.57;;;17.40;62.10;;;;;;10507183;28;20214;-66
2022/01/16 09:24:46;;;;;;;3.67;3.20;;;17.40;62.00;;;;;;10533794;28;20744;-66
2022/01/16 09:30:10;;;;;;;4.13;3.30;;;17.40;62.10;;;;;;10511810;28;20191;-66
2022/01/16 09:35:33;;;;;;;3.50;3.07;;;17.50;62.30;;;;;;10514752;28;20227;-67
2022/01/16 09:40:57;;;;;;;4.70;3.30;;;17.40;62.20;;;;;;10537395;28;20186;-67
2022/01/16 09:46:19;;;;;;;4.63;3.37;;;17.50;62.30;;;;;;10539523;28;20180;-67
2022/01/16 09:51:42;;;;;;;4.23;3.27;;;17.40;62.20;;;;;;10505175;28;20212;-67
2022/01/16 09:57:06;;;;;;;5.90;3.90;;;17.40;62.20;;;;;;10494785;28;20212;-67
2022/01/16 10:02:28;;;;;;;5.40;3.77;;;17.40;62.20;;;;;;10520115;28;20227;-68
2022/01/16 10:07:50;;;;;;;4.03;3.63;;;17.50;62.10;;;;;;10476103;22;20233;-65
2022/01/16 10:13:22;;;;;;;4.63;3.60;;;17.50;62.20;;;;;;10413630;28;20198;-66
2022/01/16 10:18:44;;;;;;;6.67;4.53;;;17.50;62.20;;;;;;10407799;28;20744;-66
2022/01/16 10:24:25;;;;;;;5.23;3.97;;;17.50;62.30;;;;;;10396230;28;20290;-65
2022/01/16 10:29:52;;;;;;;11.98;8.60;;;17.50;61.80;;;;;;10395654;28;20803;-68
2022/01/16 10:35:17;;;;;;;13.93;8.77;;;18.40;57.50;;;;;;10397835;28;20596;-66
2022/01/16 10:40:40;;;;;;;10.80;7.90;;;17.80;58.60;;;;;;10373096;28;20206;-64
2022/01/16 10:46:04;;;;;;;15.40;11.40;;;17.50;59.80;;;;;;10382876;28;20256;-64
2022/01/16 10:51:26;;;;;;;15.07;10.77;;;17.40;58.20;;;;;;10403764;28;20194;-65
2022/01/16 10:56:48;;;;;;;14.93;10.77;;;17.30;57.60;;;;;;10370569;28;20599;-65
2022/01/16 11:02:13;;;;;;;16.40;12.53;;;17.30;57.70;;;;;;10382683;28;20429;-64
2022/01/16 11:07:35;;;;;;;11.60;9.10;;;18.20;56.40;;;;;;10388100;28;20244;-63
2022/01/16 11:12:59;;;;;;;11.63;8.50;;;17.60;58.10;;;;;;10404323;28;20201;-64
2022/01/16 11:18:24;;;;;;;10.93;8.10;;;17.50;59.00;;;;;;10380782;28;20690;-64
2022/01/16 11:24:00;;;;;;;11.67;9.13;;;17.40;59.40;;;;;;10385153;28;20436;-65
2022/01/16 11:29:22;;;;;;;14.07;7.80;;;17.70;59.10;;;;;;10408827;28;20208;-64
2022/01/16 11:34:46;;;;;;;13.10;7.53;;;17.50;59.80;;;;;;10409299;28;20434;-65
2022/01/16 11:40:29;;;;;;;8.30;6.47;;;17.70;59.80;;;;;;10402545;28;20440;-65
2022/01/16 11:46:04;;;;;;;7.93;6.07;;;17.60;60.20;;;;;;10384698;28;20217;-65
2022/01/16 11:51:52;;;;;;;9.83;7.60;;;17.50;60.60;;;;;;10406478;28;20826;-64
2022/01/16 11:57:23;;;;;;;7.03;5.73;;;18.30;57.30;;;;;;10405112;28;20999;-65
2022/01/16 12:02:48;;;;;;;7.87;5.60;;;17.70;59.80;;;;;;10377048;28;20194;-64
2022/01/16 12:08:19;;;;;;;6.47;5.50;;;17.60;60.60;;;;;;10379517;28;20222;-64
2022/01/16 12:13:52;;;;;;;4.87;4.13;;;17.60;60.90;;;;;;10378798;28;20212;-65
2022/01/16 12:19:46;;;;;;;7.37;5.17;;;17.50;60.90;;;;;;10399819;28;20186;-65
2022/01/16 12:25:17;;;;;;;6.97;4.80;;;17.60;61.10;;;;;;10392038;28;20206;-64
2022/01/16 12:30:48;;;;;;;5.43;4.73;;;17.50;61.20;;;;;;10393660;28;20186;-64
2022/01/16 12:36:15;;;;;;;7.03;5.33;;;17.50;61.40;;;;;;10396916;28;20594;-65
2022/01/16 12:41:41;;;;;;;5.83;4.60;;;17.50;61.50;;;;;;10385223;28;20202;-64
2022/01/16 12:47:05;;;;;;;7.63;4.80;;;17.50;61.50;;;;;;10393003;28;20213;-64
2022/01/16 12:52:28;;;;;;;5.87;4.63;;;17.50;61.60;;;;;;10407397;28;20275;-66
2022/01/16 12:57:51;;;;;;;6.73;5.80;;;17.40;62.20;;;;;;10392744;28;21198;-65
2022/01/16 13:03:25;;;;;;;4.97;4.40;;;17.50;61.70;;;;;;10399715;28;20217;-65
2022/01/16 13:08:55;;;;;;;6.87;4.70;;;17.50;61.60;;;;;;10380586;28;20590;-65
2022/01/16 13:14:20;;;;;;;6.88;5.20;;;17.50;61.70;;;;;;10373703;28;20737;-65
2022/01/16 13:19:51;;;;;;;6.10;5.17;;;17.80;60.60;;;;;;10401948;28;20552;-65
2022/01/16 13:25:13;;;;;;;5.90;4.40;;;17.60;61.10;;;;;;10366784;28;20207;-66
2022/01/16 13:30:37;;;;;;;5.60;3.97;;;17.50;61.40;;;;;;10378932;28;20208;-65
2022/01/16 13:36:00;;;;;;;5.83;4.77;;;17.50;61.60;;;;;;10394429;28;20226;-65
2022/01/16 13:41:22;;;;;;;8.07;4.87;;;17.50;61.70;;;;;;10381970;28;20222;-63
2022/01/16 13:46:45;;;;;;;6.50;4.70;;;17.50;61.80;;;;;;10404158;28;20564;-63
2022/01/16 13:52:07;;;;;;;5.60;4.40;;;17.50;61.90;;;;;;10403317;28;20556;-63
2022/01/16 13:57:34;;;;;;;7.73;4.60;;;17.40;62.50;;;;;;10413320;28;20222;-64
2022/01/16 14:03:12;;;;;;;5.57;4.50;;;17.40;62.50;;;;;;10405701;28;20548;-65
2022/01/16 14:08:38;;;;;;;5.90;4.80;;;17.50;61.60;;;;;;10403990;28;20288;-64
2022/01/16 14:14:03;;;;;;;5.10;4.57;;;17.40;61.60;;;;;;10404443;28;20698;-64
2022/01/16 14:19:37;;;;;;;6.07;4.80;;;17.40;61.70;;;;;;10408103;28;20546;-64
2022/01/16 14:25:02;;;;;;;6.80;4.53;;;17.40;61.80;;;;;;10406045;28;20209;-64
2022/01/16 14:30:24;;;;;;;6.97;4.87;;;17.40;61.80;;;;;;10410260;28;20308;-64
2022/01/16 14:35:47;;;;;;;5.65;5.03;;;17.40;61.90;;;;;;10407834;28;20500;-64
2022/01/16 14:41:12;;;;;;;6.57;4.53;;;18.30;59.10;;;;;;10379032;28;20206;-65
2022/01/16 14:46:34;;;;;;;6.20;4.87;;;17.80;60.90;;;;;;10404649;28;20365;-65
2022/01/16 14:51:57;;;;;;;6.77;4.60;;;17.60;61.60;;;;;;10405417;28;20201;-64
2022/01/16 14:57:21;;;;;;;4.70;4.10;;;17.60;61.90;;;;;;10398558;28;20253;-64
2022/01/16 15:02:44;;;;;;;5.90;4.37;;;17.50;61.90;;;;;;10392652;28;20588;-64
2022/01/16 15:08:07;;;;;;;6.83;4.83;;;17.50;62.00;;;;;;10407004;28;20759;-63
2022/01/16 15:13:29;;;;;;;5.57;3.73;;;17.50;62.10;;;;;;10401134;28;20672;-63
2022/01/16 15:18:54;;;;;;;5.00;3.90;;;17.50;62.20;;;;;;10387192;28;20218;-63
2022/01/16 15:24:18;;;;;;;5.10;4.43;;;17.50;62.20;;;;;;10407579;28;20224;-63
2022/01/16 15:29:41;;;;;;;4.40;3.87;;;17.50;61.80;;;;;;10389407;28;20567;-63
2022/01/16 15:35:03;;;;;;;5.80;4.10;;;17.40;62.00;;;;;;10399791;28;20221;-63
2022/01/16 15:40:34;;;;;;;4.93;4.33;;;17.40;62.30;;;;;;10407616;28;20205;-63
2022/01/16 15:45:58;;;;;;;4.80;3.90;;;17.40;62.50;;;;;;10368813;28;20199;-63
2022/01/16 15:51:20;;;;;;;4.80;3.40;;;17.40;62.70;;;;;;10376123;28;20221;-63
2022/01/16 15:56:43;;;;;;;5.07;4.03;;;17.40;62.80;;;;;;10409049;28;20552;-64
2022/01/16 16:02:06;;;;;;;5.63;4.07;;;17.40;62.80;;;;;;10406338;28;20656;-63
2022/01/16 16:07:28;;;;;;;5.47;4.43;;;17.40;62.90;;;;;;10467895;22;20323;-69
2022/01/16 16:12:51;;;;;;;5.33;3.40;;;17.40;62.90;;;;;;10479459;28;20201;-68
2022/01/16 16:18:13;;;;;;;4.97;3.80;;;17.40;63.10;;;;;;10477886;28;20228;-69
2022/01/16 16:23:36;;;;;;;8.77;3.77;;;17.40;63.20;;;;;;10479259;28;20189;-69
2022/01/16 16:29:02;;;;;;;4.50;3.60;;;17.40;63.30;;;;;;10489716;28;20224;-69
2022/01/16 16:34:24;;;;;;;4.53;3.47;;;17.40;63.40;;;;;;10491499;28;20579;-69
2022/01/16 16:39:46;;;;;;;4.63;3.90;;;17.40;63.40;;;;;;10475538;28;20225;-69
2022/01/16 16:45:11;;;;;;;6.30;3.77;;;17.40;63.40;;;;;;10471692;28;20197;-69
2022/01/16 16:50:33;;;;;;;4.67;3.50;;;17.40;63.40;;;;;;10472692;28;20188;-69
2022/01/16 16:55:56;;;;;;;4.90;3.70;;;17.40;63.50;;;;;;10482691;28;20220;-69
2022/01/16 17:01:19;;;;;;;4.90;3.87;;;17.30;63.30;;;;;;10467604;28;20686;-68
2022/01/16 17:06:42;;;;;;;5.27;3.53;;;17.30;63.30;;;;;;10471747;28;20227;-69
2022/01/16 17:12:05;;;;;;;4.67;4.10;;;17.30;63.40;;;;;;10481673;28;20252;-68
2022/01/16 17:17:29;;;;;;;4.73;3.40;;;17.30;63.30;;;;;;10490667;28;20216;-69
2022/01/16 17:22:52;;;;;;;5.87;3.97;;;17.30;63.30;;;;;;10483686;28;20211;-69
2022/01/16 17:28:14;;;;;;;4.83;3.90;;;17.30;63.20;;;;;;10468064;28;20246;-68
2022/01/16 17:33:37;;;;;;;3.63;3.10;;;17.30;63.30;;;;;;10496977;28;20193;-68
2022/01/16 17:38:59;;;;;;;4.67;3.40;;;17.30;63.20;;;;;;10498933;28;20220;-69
2022/01/16 17:44:21;;;;;;;3.90;3.40;;;17.30;63.30;;;;;;10490846;28;20196;-69
2022/01/16 17:49:46;;;;;;;3.93;3.47;;;17.30;63.30;;;;;;10480376;28;20216;-68
2022/01/16 17:55:09;;;;;;;4.23;3.40;;;17.30;63.30;;;;;;10497038;28;20270;-68
2022/01/16 18:00:31;;;;;;;3.60;3.23;;;17.40;63.40;;;;;;10487107;28;20192;-68
2022/01/16 18:05:56;;;;;;;4.53;3.33;;;17.30;63.30;;;;;;10495801;28;20225;-68
2022/01/16 18:11:18;;;;;;;4.67;3.10;;;17.30;63.30;;;;;;10497950;28;20192;-69
2022/01/16 18:16:40;;;;;;;4.07;3.30;;;17.30;63.40;;;;;;10486992;28;20585;-68
2022/01/16 18:22:03;;;;;;;4.23;2.80;;;17.30;63.30;;;;;;10487228;28;20208;-68
2022/01/16 18:27:27;;;;;;;3.73;3.10;;;17.30;63.30;;;;;;10477194;28;21295;-68
2022/01/16 18:32:49;;;;;;;3.23;2.93;;;17.30;63.50;;;;;;10489883;28;20197;-69
2022/01/16 18:38:12;;;;;;;3.53;2.80;;;17.30;63.20;;;;;;10463704;28;20229;-68
2022/01/16 18:43:35;;;;;;;4.43;3.53;;;17.30;63.10;;;;;;10484678;28;20219;-68
2022/01/16 18:48:57;;;;;;;4.03;3.10;;;17.30;63.30;;;;;;10460325;28;20204;-69
2022/01/16 18:54:20;;;;;;;3.30;2.80;;;17.30;63.30;;;;;;10495105;28;20199;-68
2022/01/16 18:59:44;;;;;;;3.90;3.00;;;17.30;63.10;;;;;;10484693;28;20212;-68
2022/01/16 19:05:07;;;;;;;3.67;2.97;;;17.30;63.20;;;;;;10467956;28;20670;-68
2022/01/16 19:10:32;;;;;;;2.80;2.50;;;17.30;63.30;;;;;;10493890;28;20188;-68
2022/01/16 19:15:54;;;;;;;3.50;2.53;;;17.30;63.30;;;;;;10464816;28;20715;-69
2022/01/16 19:21:16;;;;;;;3.30;2.57;;;17.30;63.30;;;;;;10478275;28;20211;-68
2022/01/16 19:26:40;;;;;;;3.03;2.73;;;17.30;63.30;;;;;;10482836;28;20223;-70
2022/01/16 19:32:02;;;;;;;4.90;3.20;;;17.20;62.90;;;;;;10485550;28;20204;-68
2022/01/16 19:37:24;;;;;;;3.77;2.90;;;17.30;63.00;;;;;;10466865;28;20232;-68
2022/01/16 19:43:01;;;;;;;2.90;2.50;;;17.30;62.90;;;;;;10454898;28;20189;-69
2022/01/16 19:48:23;;;;;;;3.37;2.37;;;17.30;62.80;;;;;;10472187;28;20246;-70
2022/01/16 19:53:45;;;;;;;3.50;2.50;;;17.30;63.00;;;;;;10473052;28;20199;-68
2022/01/16 19:59:09;;;;;;;3.10;2.40;;;17.30;63.10;;;;;;10472029;28;20224;-68
2022/01/16 20:04:31;;;;;;;2.93;2.57;;;17.30;63.10;;;;;;10452781;28;20194;-66
2022/01/16 20:09:53;;;;;;;2.90;2.30;;;17.30;63.20;;;;;;10481124;28;20197;-66
2022/01/16 20:15:21;;;;;;;2.80;2.40;;;17.30;63.40;;;;;;10462445;28;20587;-66
2022/01/16 20:20:44;;;;;;;4.00;2.30;;;17.40;63.50;;;;;;10481542;28;20297;-65
2022/01/16 20:26:06;;;;;;;4.60;2.40;;;17.40;63.60;;;;;;10467509;28;20588;-66
2022/01/16 20:31:30;;;;;;;2.90;2.20;;;17.40;63.60;;;;;;10451271;28;20556;-66
2022/01/16 20:36:54;;;;;;;4.83;2.40;;;17.40;63.60;;;;;;10450102;28;20224;-65
2022/01/16 20:42:16;;;;;;;2.40;2.20;;;17.40;63.50;;;;;;10483627;28;20837;-65
2022/01/16 20:47:39;;;;;;;3.43;2.63;;;17.40;63.50;;;;;;10493054;28;20683;-65
2022/01/16 20:53:02;;;;;;;3.63;2.47;;;17.40;63.50;;;;;;10477178;28;20575;-65
2022/01/16 20:58:24;;;;;;;3.90;2.40;;;17.50;63.50;;;;;;10471402;28;20216;-65
2022/01/16 21:03:48;;;;;;;2.63;2.10;;;17.50;63.50;;;;;;10464624;28;20188;-66
2022/01/16 21:09:11;;;;;;;2.47;2.13;;;17.50;63.50;;;;;;10478718;28;20233;-66
2022/01/16 21:14:33;;;;;;;2.80;2.10;;;17.50;63.50;;;;;;10469861;28;20337;-66
2022/01/16 21:19:57;;;;;;;3.17;2.17;;;17.50;63.40;;;;;;10480085;28;20624;-66
2022/01/16 21:25:19;;;;;;;2.63;1.93;;;17.50;63.40;;;;;;10476828;28;20249;-66
2022/01/16 21:30:43;;;;;;;2.67;2.13;;;17.50;63.50;;;;;;10470174;28;20208;-66
2022/01/16 21:36:07;;;;;;;2.23;2.03;;;17.50;63.40;;;;;;10475639;28;20228;-66
2022/01/16 21:41:29;;;;;;;3.13;2.07;;;17.50;63.40;;;;;;10460537;28;20204;-66
2022/01/16 21:46:51;;;;;;;3.37;2.23;;;17.50;63.40;;;;;;10476040;28;20212;-65
2022/01/16 21:52:16;;;;;;;2.73;1.90;;;17.40;63.30;;;;;;10480021;28;20201;-66
2022/01/16 21:57:38;;;;;;;3.10;2.20;;;17.50;63.40;;;;;;10476152;28;20611;-65
2022/01/16 22:03:00;;;;;;;2.30;1.80;;;17.50;63.50;;;;;;10477175;28;20200;-66
2022/01/16 22:08:24;;;;;;;2.10;1.70;;;17.50;63.50;;;;;;10501784;23;20232;-67
2022/01/16 22:13:46;;;;;;;3.23;1.80;;;17.40;63.40;;;;;;10495346;28;20196;-68
2022/01/16 22:19:08;;;;;;;4.07;2.20;;;17.40;63.50;;;;;;10482314;28;20213;-68
2022/01/16 22:24:31;;;;;;;2.77;1.97;;;17.40;63.40;;;;;;10456933;28;20184;-69
2022/01/16 22:29:53;;;;;;;2.00;1.50;;;17.40;63.50;;;;;;10492651;28;20239;-68
2022/01/16 22:35:15;;;;;;;2.20;1.67;;;17.40;63.50;;;;;;10471816;28;20220;-68
2022/01/16 22:40:40;;;;;;;2.07;1.83;;;17.40;63.40;;;;;;10457054;28;20197;-68
2022/01/16 22:46:02;;;;;;;2.67;1.57;;;17.40;63.40;;;;;;10455954;28;20572;-68
2022/01/16 22:51:24;;;;;;;3.40;1.60;;;17.40;63.40;;;;;;10500245;28;20207;-68
2022/01/16 22:56:48;;;;;;;1.70;1.60;;;17.40;63.50;;;;;;10496688;28;20212;-68
2022/01/16 23:02:10;;;;;;;2.80;1.80;;;17.40;63.40;;;;;;10494757;28;20215;-68
2022/01/16 23:07:33;;;;;;;1.97;1.60;;;17.40;63.40;;;;;;10495146;28;20228;-69
2022/01/16 23:12:56;;;;;;;2.47;1.77;;;17.40;63.30;;;;;;10495346;28;20224;-68
2022/01/16 23:18:18;;;;;;;2.13;1.70;;;17.40;63.30;;;;;;10491542;28;20227;-68
2022/01/16 23:23:41;;;;;;;2.50;1.80;;;17.40;63.40;;;;;;10495182;28;20579;-68
2022/01/16 23:29:05;;;;;;;2.13;1.70;;;17.40;63.30;;;;;;10485274;28;20212;-68
2022/01/16 23:34:27;;;;;;;2.67;1.77;;;17.40;63.40;;;;;;10484637;28;20196;-67
2022/01/16 23:39:49;;;;;;;2.40;1.43;;;17.40;63.40;;;;;;10453645;28;20229;-67
2022/01/16 23:45:16;;;;;;;2.27;1.40;;;17.40;63.40;;;;;;10472914;28;20196;-69
2022/01/16 23:50:38;;;;;;;2.57;1.67;;;17.40;63.30;;;;;;10492820;28;20181;-68
2022/01/16 23:56:01;;;;;;;2.23;1.50;;;17.40;63.30;;;;;;10494406;28;20250;-67
